createdAt,value
2019-01-25T00:05:02.866Z,42.85
2019-01-25T00:10:11.840Z,43.77
2019-01-25T00:15:20.875Z,42.02
2019-01-25T00:20:29.906Z,43.09
2019-01-25T00:25:38.940Z,43.24
2019-01-25T00:30:47.936Z,44.02
2019-01-25T00:35:56.960Z,43.43
2019-01-25T00:41:05.945Z,42.10
2019-01-25T00:46:14.960Z,41.11
2019-01-25T00:51:23.967Z,45.51
2019-01-25T00:56:32.988Z,44.72
2019-01-25T01:01:41.987Z,44.72
2019-01-25T01:06:51.008Z,44.41
2019-01-25T01:12:00.009Z,42.93
2019-01-25T01:17:09.028Z,44.51
2019-01-25T01:22:18.012Z,43.89
2019-01-25T01:27:27.089Z,43.52
2019-01-25T01:32:36.078Z,45.25
2019-01-25T01:37:45.167Z,44.27
2019-01-25T01:42:54.164Z,43.18
2019-01-25T01:48:03.182Z,44.47
2019-01-25T01:53:12.164Z,43.59
2019-01-25T01:58:21.164Z,43.39
2019-01-25T02:03:28.683Z,44.95
2019-01-25T02:08:37.714Z,42.86
2019-01-25T02:13:46.720Z,43.91
2019-01-25T02:18:55.731Z,45.25
2019-01-25T02:24:04.721Z,45.38
2019-01-25T02:29:13.756Z,44.13
2019-01-25T02:34:22.846Z,45.77
2019-01-25T02:39:31.874Z,45.16
2019-01-25T02:44:40.892Z,45.46
2019-01-25T02:49:49.969Z,46.63
2019-01-25T02:54:58.965Z,46.07
2019-01-25T03:00:07.992Z,47.91
2019-01-25T03:05:16.986Z,44.16
2019-01-25T03:10:28.869Z,46.18
2019-01-25T03:15:34.516Z,46.94
2019-01-25T03:20:43.613Z,47.70
2019-01-25T03:25:52.588Z,45.61
2019-01-25T03:31:01.606Z,45.40
2019-01-25T03:36:10.596Z,47.57
2019-01-25T03:41:19.616Z,47.50
2019-01-25T03:46:28.620Z,47.57
2019-01-25T03:51:37.636Z,47.35
2019-01-25T03:56:47.947Z,46.58
2019-01-25T04:01:55.241Z,46.51
2019-01-25T04:07:04.226Z,47.19
2019-01-25T04:12:13.253Z,46.50
2019-01-25T04:17:22.277Z,46.83
2019-01-25T04:22:31.354Z,46.95
2019-01-25T04:27:40.352Z,46.59
2019-01-25T04:32:49.450Z,47.85
2019-01-25T04:37:58.392Z,47.80
2019-01-25T04:43:07.408Z,48.44
2019-01-25T04:48:16.433Z,48.59
2019-01-25T04:53:25.440Z,48.50
2019-01-25T04:58:34.429Z,48.79
2019-01-25T05:03:43.390Z,48.17
2019-01-25T05:08:52.334Z,48.42
2019-01-25T05:14:01.331Z,47.26
2019-01-25T05:19:10.279Z,46.36
2019-01-25T05:24:19.283Z,49.01
2019-01-25T05:29:28.247Z,46.33
2019-01-25T05:34:37.275Z,47.76
2019-01-25T05:39:46.220Z,47.84
2019-01-25T05:44:55.202Z,50.00
2019-01-25T05:50:04.158Z,48.74
2019-01-25T05:55:13.114Z,47.74
2019-01-25T06:00:22.058Z,48.68
2019-01-25T06:05:31.006Z,47.53
2019-01-25T06:10:39.962Z,49.40
2019-01-25T06:15:48.919Z,49.06
2019-01-25T06:20:57.851Z,48.43
2019-01-25T06:26:06.866Z,49.26
2019-01-25T06:31:15.806Z,48.57
2019-01-25T06:36:29.502Z,47.38
2019-01-25T06:41:28.482Z,44.32
2019-01-25T06:46:37.488Z,43.40
2019-01-25T06:51:46.454Z,40.88
2019-01-25T06:57:01.307Z,44.32
2019-01-25T07:02:00.258Z,46.51
2019-01-25T07:07:09.258Z,49.26
2019-01-25T07:12:18.198Z,46.54
2019-01-25T07:17:28.850Z,43.98
2019-01-25T07:22:27.791Z,48.00
2019-01-25T07:27:36.799Z,47.23
2019-01-25T07:32:45.819Z,48.48
2019-01-25T07:37:54.742Z,48.79
2019-01-25T07:43:03.694Z,48.45
2019-01-25T07:48:12.727Z,46.32
2019-01-25T07:53:22.284Z,47.65
2019-01-25T07:58:30.195Z,47.33
2019-01-25T08:03:39.134Z,48.66
2019-01-25T08:08:48.086Z,42.89
2019-01-25T08:14:00.063Z,34.67
2019-01-25T08:18:57.519Z,34.20
2019-01-25T08:24:06.517Z,39.98
2019-01-25T08:29:15.518Z,39.65
2019-01-25T08:34:29.935Z,34.14
2019-01-25T08:39:28.989Z,35.41
2019-01-25T08:44:36.475Z,35.50
2019-01-25T08:49:45.518Z,35.57
2019-01-25T08:54:54.507Z,39.75
2019-01-25T09:00:03.576Z,40.88
2019-01-25T09:05:12.688Z,40.69
2019-01-25T09:10:22.798Z,37.66
2019-01-25T09:15:22.645Z,34.64
2019-01-25T09:20:30.270Z,33.82
2019-01-25T09:25:39.182Z,32.84
2019-01-25T09:30:48.727Z,32.38
2019-01-25T09:35:57.662Z,30.29
2019-01-25T09:41:07.311Z,31.88
2019-01-25T09:46:16.279Z,30.84
2019-01-25T09:51:25.226Z,30.80
2019-01-25T09:56:34.459Z,31.95
2019-01-25T10:01:43.483Z,32.77
2019-01-25T10:06:54.845Z,32.18
2019-01-25T10:11:53.810Z,33.36
2019-01-25T10:17:02.739Z,33.12
2019-01-25T10:22:11.770Z,33.95
2019-01-25T10:27:20.709Z,34.79
2019-01-25T10:32:29.650Z,34.13
2019-01-25T10:37:38.638Z,34.38
2019-01-25T10:42:53.027Z,34.87
2019-01-25T10:47:56.090Z,33.61
2019-01-25T10:53:05.006Z,37.18
2019-01-25T10:58:13.998Z,35.88
2019-01-25T11:03:22.962Z,35.25
2019-01-25T11:08:32.942Z,37.63
2019-01-25T11:13:40.484Z,36.87
2019-01-25T11:18:49.446Z,37.92
2019-01-25T11:23:58.398Z,37.56
2019-01-25T11:29:07.393Z,37.35
2019-01-25T11:34:16.315Z,36.48
2019-01-25T11:39:25.322Z,36.56
2019-01-25T11:44:34.246Z,37.28
2019-01-25T11:49:43.202Z,36.97
2019-01-25T11:54:52.130Z,35.26
2019-01-25T12:00:01.147Z,36.79
2019-01-25T12:05:10.071Z,34.96
2019-01-25T12:10:19.082Z,37.83
2019-01-25T12:15:27.977Z,37.34
2019-01-25T12:20:36.922Z,36.32
2019-01-25T12:25:44.451Z,38.25
2019-01-25T12:30:53.374Z,36.40
2019-01-25T12:36:02.350Z,36.56
2019-01-25T12:41:11.267Z,37.20
2019-01-25T12:46:20.238Z,34.12
2019-01-25T12:51:29.154Z,35.94
2019-01-25T12:56:38.143Z,34.51
2019-01-25T13:01:47.105Z,34.97
2019-01-25T13:06:58.706Z,33.95
2019-01-25T13:11:57.666Z,33.61
2019-01-25T13:17:06.662Z,34.00
2019-01-25T13:22:15.630Z,35.62
2019-01-25T13:27:24.609Z,36.22
2019-01-25T13:32:33.623Z,37.63
2019-01-25T13:37:42.558Z,38.89
2019-01-25T13:42:51.574Z,40.51
2019-01-25T13:48:00.523Z,41.94
2019-01-25T13:53:09.563Z,41.31
2019-01-25T13:58:18.487Z,44.27
2019-01-25T14:03:27.495Z,44.35
2019-01-25T14:08:36.458Z,42.64
2019-01-25T14:13:46.987Z,42.86
2019-01-25T14:18:53.965Z,41.68
2019-01-25T14:24:02.909Z,41.27
2019-01-25T14:29:11.882Z,40.76
2019-01-25T14:34:22.247Z,40.42
2019-01-25T14:39:21.265Z,42.09
2019-01-25T14:44:30.200Z,39.06
2019-01-25T14:49:39.207Z,43.01
2019-01-25T14:54:48.126Z,41.24
2019-01-25T14:59:57.135Z,41.53
2019-01-25T15:05:07.293Z,43.85
2019-01-25T15:10:14.594Z,45.28
2019-01-25T15:15:23.534Z,43.66
2019-01-25T15:20:32.515Z,45.16
2019-01-25T15:25:41.448Z,46.34
2019-01-25T15:30:50.450Z,44.50
2019-01-25T15:35:59.400Z,44.84
2019-01-25T15:41:08.437Z,45.07
2019-01-25T15:46:17.391Z,47.34
2019-01-25T15:51:41.626Z,44.36
2019-01-25T15:56:42.654Z,44.42
2019-01-25T16:01:31.638Z,41.66
2019-01-25T16:06:40.606Z,42.02
2019-01-25T16:11:49.527Z,44.33
2019-01-25T16:16:58.490Z,42.25
2019-01-25T16:22:07.399Z,42.33
2019-01-25T16:27:16.434Z,42.52
2019-01-25T16:32:25.620Z,40.13
2019-01-25T16:37:34.633Z,39.04
2019-01-25T16:42:43.542Z,38.18
2019-01-25T16:47:53.826Z,38.38
2019-01-25T16:52:52.762Z,39.24
2019-01-25T16:58:01.802Z,41.77
2019-01-25T17:03:09.250Z,41.75
2019-01-25T17:08:19.125Z,44.06
2019-01-25T17:13:26.735Z,44.24
2019-01-25T17:18:35.734Z,42.52
2019-01-25T17:23:47.693Z,41.89
2019-01-25T17:28:46.747Z,42.92
2019-01-25T17:33:55.662Z,41.10
2019-01-25T17:39:07.398Z,41.45
2019-01-25T17:44:06.354Z,40.68
2019-01-25T17:49:15.316Z,39.43
2019-01-25T17:54:24.250Z,38.42
2019-01-25T17:59:33.174Z,36.53
2019-01-25T18:04:42.172Z,35.76
2019-01-25T18:09:51.111Z,34.50
2019-01-25T18:15:00.175Z,34.18
2019-01-25T18:20:09.055Z,35.58
2019-01-25T18:25:18.062Z,34.80
2019-01-25T18:30:27.018Z,36.33
2019-01-25T18:35:35.974Z,35.16
2019-01-25T18:40:44.908Z,34.54
2019-01-25T18:45:53.895Z,35.04
2019-01-25T18:51:02.806Z,35.42
2019-01-25T18:56:11.798Z,35.43
2019-01-25T19:01:20.713Z,36.35
2019-01-25T19:06:29.686Z,35.83
2019-01-25T19:11:38.623Z,37.44
2019-01-25T19:16:47.606Z,35.28
2019-01-25T19:21:56.518Z,37.27
2019-01-25T19:27:05.526Z,35.36
2019-01-25T19:32:14.518Z,37.31
2019-01-25T19:37:24.470Z,36.66
2019-01-25T19:42:33.410Z,38.06
2019-01-25T19:47:42.419Z,37.20
2019-01-25T19:52:51.351Z,38.34
2019-01-25T19:58:00.402Z,39.28
2019-01-25T20:03:09.336Z,40.52
2019-01-25T20:08:18.626Z,40.81
2019-01-25T20:13:27.558Z,41.58
2019-01-25T20:18:36.571Z,43.03
2019-01-25T20:23:45.510Z,44.68
2019-01-25T20:28:54.495Z,48.27
2019-01-25T20:34:03.447Z,50.98
2019-01-25T20:39:12.407Z,52.66
2019-01-25T20:44:21.351Z,56.37
2019-01-25T20:49:30.322Z,59.86
2019-01-25T20:54:39.271Z,63.35
2019-01-25T20:59:48.263Z,67.60
2019-01-25T21:04:57.222Z,69.79
2019-01-25T21:10:06.252Z,70.68
2019-01-25T21:15:15.194Z,72.18
2019-01-25T21:20:24.170Z,72.47
2019-01-25T21:25:33.122Z,72.13
2019-01-25T21:30:42.140Z,72.97
2019-01-25T21:35:51.049Z,77.81
2019-01-25T21:41:00.066Z,80.87
2019-01-25T21:46:08.998Z,77.21
2019-01-25T21:51:17.967Z,77.42
2019-01-25T21:56:26.952Z,78.46
2019-01-25T22:01:35.968Z,80.65
2019-01-25T22:06:44.898Z,83.71
2019-01-25T22:11:53.834Z,85.34
2019-01-25T22:17:02.808Z,81.39
2019-01-25T22:22:11.787Z,85.08
2019-01-25T22:27:20.738Z,82.03
2019-01-25T22:32:29.726Z,89.43
2019-01-25T22:37:38.678Z,88.38
2019-01-25T22:42:47.666Z,84.81
2019-01-25T22:47:56.581Z,83.90
2019-01-25T22:53:05.526Z,83.29
2019-01-25T22:58:14.537Z,83.08
2019-01-25T23:03:23.526Z,81.67
2019-01-25T23:08:32.475Z,82.49
2019-01-25T23:13:41.410Z,87.89
2019-01-25T23:18:50.537Z,81.73
2019-01-25T23:23:59.454Z,79.95
2019-01-25T23:29:08.424Z,83.63
2019-01-25T23:34:17.347Z,78.30
2019-01-25T23:39:26.298Z,82.23
2019-01-25T23:44:35.245Z,81.92
2019-01-25T23:49:44.264Z,74.88
2019-01-25T23:54:53.203Z,71.97
